createdAt,value
2022-08-03T00:03:00.015Z,101141.19
2022-08-03T00:06:05.222Z,101140.03
2022-08-03T00:09:08.769Z,101141.84
2022-08-03T00:12:11.801Z,101131.78
2022-08-03T00:15:16.643Z,101136.56
2022-08-03T00:18:20.368Z,101124.84
2022-08-03T00:21:24.737Z,101132.09
2022-08-03T00:24:27.776Z,101128.31
2022-08-03T00:27:32.578Z,101132.09
2022-08-03T00:30:36.278Z,101125.31
2022-08-03T00:33:58.320Z,101124.28
2022-08-03T00:37:03.542Z,101116.38
2022-08-03T00:40:08.368Z,101119.63
2022-08-03T00:43:11.608Z,101116.31
2022-08-03T00:46:19.253Z,101108.31
2022-08-03T00:49:25.293Z,101113.59
2022-08-03T00:52:29.651Z,101104.16
2022-08-03T00:55:32.834Z,101107.78
2022-08-03T00:58:36.002Z,101094.09
2022-08-03T01:01:40.534Z,101095.50
2022-08-03T01:04:43.556Z,101097.63
2022-08-03T01:08:04.253Z,101100.50
2022-08-03T01:11:18.260Z,101103.16
2022-08-03T01:14:29.081Z,101103.66
2022-08-03T01:17:40.577Z,101098.34
2022-08-03T01:20:49.494Z,101099.19
2022-08-03T01:24:06.229Z,101095.56
2022-08-03T01:27:14.145Z,101091.59
2022-08-03T01:30:18.863Z,101083.94
2022-08-03T01:33:30.929Z,101084.16
2022-08-03T01:36:39.743Z,101081.38
2022-08-03T01:39:44.197Z,101081.38
2022-08-03T01:42:48.814Z,101067.16
2022-08-03T01:45:55.481Z,101063.84
2022-08-03T01:48:59.883Z,101062.19
2022-08-03T01:52:05.562Z,101067.31
2022-08-03T01:55:10.894Z,101071.97
2022-08-03T01:58:16.447Z,101066.56
2022-08-03T02:01:22.797Z,101073.53
2022-08-03T02:04:28.833Z,101071.22
2022-08-03T02:07:34.434Z,101069.06
2022-08-03T02:10:39.204Z,101071.56
2022-08-03T02:13:43.281Z,101075.88
2022-08-03T02:16:50.225Z,101086.09
2022-08-03T02:19:54.895Z,101084.16
2022-08-03T02:22:58.212Z,101077.69
2022-08-03T02:26:06.046Z,101070.28
2022-08-03T02:29:39.401Z,101076.69
2022-08-03T02:32:53.247Z,101074.06
2022-08-03T02:35:58.440Z,101074.88
2022-08-03T02:39:03.302Z,101077.88
2022-08-03T02:42:09.973Z,101075.88
2022-08-03T02:45:17.624Z,101076.06
2022-08-03T02:48:26.485Z,101073.28
2022-08-03T02:51:32.996Z,101077.41
2022-08-03T02:54:37.786Z,101085.00
2022-08-03T02:57:41.761Z,101085.81
2022-08-03T03:00:46.123Z,101088.31
2022-08-03T03:03:51.872Z,101079.69
2022-08-03T03:06:56.747Z,101084.16
2022-08-03T03:10:00.628Z,101082.81
2022-08-03T03:13:04.930Z,101081.16
2022-08-03T03:16:09.377Z,101084.97
2022-08-03T03:19:17.973Z,101088.41
2022-08-03T03:22:22.778Z,101085.75
2022-08-03T03:25:26.047Z,101079.78
2022-08-03T03:28:31.818Z,101083.72
2022-08-03T03:31:36.266Z,101087.16
2022-08-03T03:34:40.963Z,101086.66
2022-08-03T03:37:47.521Z,101081.66
2022-08-03T03:40:50.675Z,101074.22
2022-08-03T03:43:53.768Z,101078.66
2022-08-03T03:46:56.895Z,101075.03
2022-08-03T03:50:03.040Z,101073.75
2022-08-03T03:53:06.283Z,101077.22
2022-08-03T03:56:12.417Z,101077.72
2022-08-03T03:59:15.575Z,101076.91
2022-08-03T04:02:18.716Z,101065.66
2022-08-03T04:05:44.257Z,101071.44
2022-08-03T04:09:06.527Z,101065.31
2022-08-03T04:12:10.108Z,101074.00
2022-08-03T04:15:14.568Z,101065.72
2022-08-03T04:18:20.023Z,101064.50
2022-08-03T04:21:25.274Z,101065.50
2022-08-03T04:24:35.061Z,101067.16
2022-08-03T04:27:41.660Z,101066.03
2022-08-03T04:30:48.917Z,101073.66
2022-08-03T04:33:53.991Z,101074.47
2022-08-03T04:37:01.521Z,101086.56
2022-08-03T04:40:10.636Z,101080.13
2022-08-03T04:43:16.118Z,101080.00
2022-08-03T04:46:21.514Z,101079.34
2022-08-03T04:49:24.976Z,101083.94
2022-08-03T04:52:30.187Z,101085.00
2022-08-03T04:55:35.814Z,101092.75
2022-08-03T04:58:39.045Z,101094.94
2022-08-03T05:01:42.551Z,101096.66
2022-08-03T05:04:46.586Z,101096.72
2022-08-03T05:07:51.251Z,101108.34
2022-08-03T05:10:54.443Z,101108.97
2022-08-03T05:13:57.585Z,101109.66
2022-08-03T05:17:00.563Z,101102.06
2022-08-03T05:20:04.987Z,101102.06
2022-08-03T05:23:09.407Z,101115.69
2022-08-03T05:26:12.831Z,101119.34
2022-08-03T05:29:16.209Z,101117.84
2022-08-03T05:32:20.167Z,101119.06
2022-08-03T05:36:01.459Z,101124.84
2022-08-03T05:38:53.840Z,101122.72
2022-08-03T05:41:56.800Z,101130.00
2022-08-03T05:44:59.792Z,101127.69
2022-08-03T05:48:02.772Z,101130.19
2022-08-03T05:51:07.585Z,101134.66
2022-08-03T05:54:11.954Z,101135.94
2022-08-03T05:57:14.967Z,101141.59
2022-08-03T06:00:19.182Z,101138.94
2022-08-03T06:03:22.218Z,101132.63
2022-08-03T06:06:28.290Z,101143.66
2022-08-03T06:10:34.919Z,101151.44
2022-08-03T06:12:59.236Z,101152.03
2022-08-03T06:16:02.381Z,101143.34
2022-08-03T06:19:05.547Z,101148.56
2022-08-03T06:22:08.584Z,101145.19
2022-08-03T06:25:13.098Z,101139.47
2022-08-03T06:28:51.792Z,101142.75
2022-08-03T06:31:41.276Z,101143.59
2022-08-03T06:34:44.300Z,101142.94
2022-08-03T06:37:49.692Z,101141.22
2022-08-03T06:40:54.325Z,101146.06
2022-08-03T06:44:03.507Z,101145.97
2022-08-03T06:47:07.536Z,101148.88
2022-08-03T06:50:12.688Z,101149.34
2022-08-03T06:53:21.186Z,101141.78
2022-08-03T06:56:26.089Z,101143.00
2022-08-03T07:00:09.297Z,101148.94
2022-08-03T07:02:57.666Z,101150.41
2022-08-03T07:06:01.891Z,101144.72
2022-08-03T07:09:07.085Z,101149.41
2022-08-03T07:12:11.468Z,101152.00
2022-08-03T07:15:20.595Z,101144.75
2022-08-03T07:18:41.736Z,101152.28
2022-08-03T07:21:45.874Z,101157.97
2022-08-03T07:24:48.955Z,101152.31
2022-08-03T07:27:53.728Z,101155.06
2022-08-03T07:30:59.459Z,101157.41
2022-08-03T07:34:02.641Z,101153.94
2022-08-03T07:37:05.640Z,101156.09
2022-08-03T07:40:10.485Z,101149.97
2022-08-03T07:43:14.842Z,101151.06
2022-08-03T07:46:17.886Z,101149.84
2022-08-03T07:49:20.940Z,101146.53
2022-08-03T07:52:41.502Z,101149.22
2022-08-03T07:55:44.568Z,101147.53
2022-08-03T07:58:49.100Z,101153.91
2022-08-03T08:01:53.655Z,101156.72
2022-08-03T08:04:56.743Z,101154.00
2022-08-03T08:07:59.762Z,101153.53
2022-08-03T08:11:02.791Z,101152.59
2022-08-03T08:14:08.034Z,101150.09
2022-08-03T08:17:11.115Z,101149.00
2022-08-03T08:20:23.802Z,101146.00
2022-08-03T08:23:41.643Z,101145.28
2022-08-03T08:26:46.765Z,101150.09
2022-08-03T08:29:55.193Z,101150.03
2022-08-03T08:33:00.511Z,101149.16
2022-08-03T08:36:03.874Z,101155.44
2022-08-03T08:39:06.847Z,101155.56
2022-08-03T08:42:11.335Z,101145.44
2022-08-03T08:45:16.541Z,101153.78
2022-08-03T08:48:24.455Z,101157.00
2022-08-03T08:51:43.818Z,101154.38
2022-08-03T08:55:00.661Z,101151.69
2022-08-03T08:58:07.353Z,101149.72
2022-08-03T09:01:11.772Z,101153.53
2022-08-03T09:04:14.948Z,101151.88
2022-08-03T09:07:20.323Z,101143.00
2022-08-03T09:10:32.878Z,101138.69
2022-08-03T09:13:36.521Z,101138.34
2022-08-03T09:17:00.219Z,101141.75
2022-08-03T09:20:09.544Z,101136.25
2022-08-03T09:23:59.236Z,101138.97
2022-08-03T09:26:38.208Z,101132.47
2022-08-03T09:29:42.926Z,101133.03
2022-08-03T09:32:48.854Z,101122.63
2022-08-03T09:35:57.896Z,101125.41
2022-08-03T09:39:05.801Z,101123.63
2022-08-03T09:42:11.188Z,101130.53
2022-08-03T09:45:27.801Z,101129.72
2022-08-03T09:48:34.905Z,101130.91
2022-08-03T09:52:33.873Z,101128.41
2022-08-03T09:55:02.298Z,101137.97
2022-08-03T09:58:09.387Z,101126.31
2022-08-03T10:01:24.008Z,101129.56
2022-08-03T10:04:29.571Z,101123.41
2022-08-03T10:07:46.171Z,101118.47
2022-08-03T10:10:53.899Z,101118.78
2022-08-03T10:14:01.282Z,101109.59
2022-08-03T10:17:05.290Z,101109.53
2022-08-03T10:20:11.783Z,101106.44
2022-08-03T10:23:17.911Z,101097.53
2022-08-03T10:26:25.042Z,101104.91
2022-08-03T10:29:30.767Z,101095.91
2022-08-03T10:32:40.199Z,101099.53
2022-08-03T10:35:49.159Z,101092.66
2022-08-03T10:38:53.688Z,101097.50
2022-08-03T10:42:02.388Z,101094.84
2022-08-03T10:45:10.823Z,101089.13
2022-08-03T10:48:14.559Z,101090.28
2022-08-03T10:51:20.320Z,101089.91
2022-08-03T10:55:03.279Z,101082.69
2022-08-03T10:58:11.013Z,101086.75
2022-08-03T11:01:15.112Z,101087.66
2022-08-03T11:04:21.485Z,101077.75
2022-08-03T11:07:26.700Z,101078.97
2022-08-03T11:10:31.982Z,101079.22
2022-08-03T11:13:35.075Z,101080.78
2022-08-03T11:16:41.809Z,101074.34
2022-08-03T11:19:57.596Z,101076.13
2022-08-03T11:23:02.983Z,101068.78
2022-08-03T11:26:17.299Z,101065.94
2022-08-03T11:29:30.127Z,101074.47
2022-08-03T11:32:58.702Z,101068.31
2022-08-03T11:36:03.249Z,101064.72
2022-08-03T11:39:17.280Z,101062.03
2022-08-03T11:42:44.012Z,101067.47
2022-08-03T11:45:59.635Z,101061.53
2022-08-03T11:49:10.960Z,101061.25
2022-08-03T11:52:14.528Z,101058.69
2022-08-03T11:55:22.039Z,101056.59
2022-08-03T11:59:10.748Z,101051.88
2022-08-03T12:01:48.572Z,101054.59
2022-08-03T12:04:52.248Z,101055.22
2022-08-03T12:08:04.422Z,101053.88
2022-08-03T12:11:12.427Z,101051.41
2022-08-03T12:14:50.502Z,101051.16
2022-08-03T12:17:42.162Z,101050.56
2022-08-03T12:20:46.352Z,101048.97
2022-08-03T12:23:49.549Z,101053.25
2022-08-03T12:26:59.023Z,101043.53
2022-08-03T12:30:04.930Z,101032.66
2022-08-03T12:33:24.047Z,101037.81
2022-08-03T12:36:29.352Z,101033.41
2022-08-03T12:39:33.697Z,101034.53
2022-08-03T12:42:40.151Z,101042.69
2022-08-03T12:45:43.285Z,101031.28
2022-08-03T12:49:09.520Z,101028.22
2022-08-03T12:52:12.688Z,101026.78
2022-08-03T12:55:21.588Z,101021.69
2022-08-03T12:58:34.802Z,101025.50
2022-08-03T13:01:38.689Z,101011.91
2022-08-03T13:04:59.376Z,101015.69
2022-08-03T13:08:02.363Z,101013.16
2022-08-03T13:11:23.739Z,101009.97
2022-08-03T13:14:50.822Z,101009.69
2022-08-03T13:17:54.426Z,101000.50
2022-08-03T13:20:57.937Z,101009.88
2022-08-03T13:24:01.216Z,101011.00
2022-08-03T13:27:59.450Z,101008.44
2022-08-03T13:30:31.223Z,101010.34
2022-08-03T13:33:34.683Z,101001.38
2022-08-03T13:37:06.398Z,100999.75
2022-08-03T13:40:02.486Z,100999.31
2022-08-03T13:43:06.360Z,100996.59
2022-08-03T13:46:10.915Z,100995.13
2022-08-03T13:49:14.052Z,100988.56
2022-08-03T13:52:17.468Z,100982.81
2022-08-03T13:55:20.776Z,100981.53
2022-08-03T13:58:24.120Z,100979.44
2022-08-03T14:01:54.259Z,100972.59
2022-08-03T14:04:51.754Z,100983.88
2022-08-03T14:07:56.861Z,100979.53
2022-08-03T14:11:07.518Z,100977.84
2022-08-03T14:14:10.909Z,100971.44
2022-08-03T14:17:16.443Z,100966.31
2022-08-03T14:20:36.844Z,100968.28
2022-08-03T14:23:42.071Z,100964.16
2022-08-03T14:26:45.043Z,100960.66
2022-08-03T14:29:48.063Z,100972.31
2022-08-03T14:32:52.409Z,100973.19
2022-08-03T14:35:55.906Z,100964.03
2022-08-03T14:39:01.373Z,100961.34
2022-08-03T14:42:05.921Z,100961.38
2022-08-03T14:45:19.895Z,100957.22
2022-08-03T14:50:30.827Z,100960.84
2022-08-03T14:51:51.359Z,100959.28
2022-08-03T14:54:57.202Z,100950.53
2022-08-03T14:58:02.916Z,100951.25
2022-08-03T15:02:05.481Z,100952.16
2022-08-03T15:04:31.716Z,100952.78
2022-08-03T15:07:34.731Z,100944.94
2022-08-03T15:10:44.369Z,100945.97
2022-08-03T15:13:48.670Z,100936.09
2022-08-03T15:16:51.700Z,100927.19
2022-08-03T15:20:03.240Z,100933.22
2022-08-03T15:23:20.390Z,100931.66
2022-08-03T15:26:30.723Z,100930.59
2022-08-03T15:30:05.573Z,100923.25
2022-08-03T15:33:00.186Z,100923.34
2022-08-03T15:36:05.438Z,100915.31
2022-08-03T15:39:08.561Z,100911.69
2022-08-03T15:42:11.759Z,100906.31
2022-08-03T15:45:14.755Z,100911.56
2022-08-03T15:48:26.499Z,100907.88
2022-08-03T15:51:31.000Z,100912.94
2022-08-03T15:54:33.986Z,100915.31
2022-08-03T15:59:04.635Z,100914.56
2022-08-03T16:01:02.818Z,100905.03
2022-08-03T16:04:06.214Z,100903.25
2022-08-03T16:07:12.564Z,100906.94
2022-08-03T16:10:17.951Z,100904.41
2022-08-03T16:13:20.958Z,100906.94
2022-08-03T16:16:24.287Z,100908.66
2022-08-03T16:19:28.089Z,100902.72
2022-08-03T16:22:32.496Z,100898.63
2022-08-03T16:25:36.106Z,100896.81
2022-08-03T16:28:39.343Z,100894.00
2022-08-03T16:31:50.908Z,100885.00
2022-08-03T16:34:54.642Z,100888.91
2022-08-03T16:37:59.852Z,100888.44
2022-08-03T16:41:05.056Z,100889.56
2022-08-03T16:44:10.034Z,100883.66
2022-08-03T16:47:21.771Z,100891.03
2022-08-03T16:50:25.942Z,100887.50
2022-08-03T16:53:33.768Z,100883.13
2022-08-03T16:56:53.377Z,100881.78
2022-08-03T16:59:56.580Z,100883.66
2022-08-03T17:03:04.117Z,100883.03
2022-08-03T17:06:09.296Z,100890.28
2022-08-03T17:09:18.213Z,100890.13
2022-08-03T17:12:21.766Z,100885.50
2022-08-03T17:15:38.089Z,100878.81
2022-08-03T17:18:54.038Z,100891.47
2022-08-03T17:22:04.521Z,100890.78
2022-08-03T17:25:10.776Z,100883.97
2022-08-03T17:28:51.103Z,100891.53
2022-08-03T17:31:54.308Z,100898.09
2022-08-03T17:34:57.537Z,100890.94
2022-08-03T17:38:03.793Z,100895.81
2022-08-03T17:41:10.549Z,100890.38
2022-08-03T17:44:29.531Z,100898.53
2022-08-03T17:47:42.073Z,100899.34
2022-08-03T17:50:54.213Z,100893.97
2022-08-03T17:54:06.187Z,100896.56
2022-08-03T17:57:30.380Z,100899.47
2022-08-03T18:01:59.275Z,100896.44
2022-08-03T18:04:43.600Z,100897.44
2022-08-03T18:08:01.716Z,100897.84
2022-08-03T18:11:14.660Z,100903.00
2022-08-03T18:14:33.174Z,100898.88
2022-08-03T18:17:55.669Z,100904.38
2022-08-03T18:21:09.392Z,100907.31
2022-08-03T18:24:20.984Z,100908.59
2022-08-03T18:27:42.873Z,100896.44
2022-08-03T18:30:53.583Z,100903.78
2022-08-03T18:34:16.797Z,100908.00
2022-08-03T18:37:26.062Z,100902.88
2022-08-03T18:40:30.043Z,100903.31
2022-08-03T18:43:46.629Z,100903.13
2022-08-03T18:47:17.717Z,100909.19
2022-08-03T18:50:28.025Z,100911.38
2022-08-03T18:54:02.451Z,100903.88
2022-08-03T18:57:09.134Z,100914.00
2022-08-03T19:00:15.893Z,100913.09
2022-08-03T19:03:42.779Z,100915.47
2022-08-03T19:06:52.336Z,100914.16
2022-08-03T19:10:03.491Z,100917.97
2022-08-03T19:13:14.158Z,100913.53
2022-08-03T19:16:24.456Z,100918.97
2022-08-03T19:19:43.322Z,100919.69
2022-08-03T19:22:48.874Z,100922.03
2022-08-03T19:25:52.343Z,100920.31
2022-08-03T19:28:58.695Z,100917.13
2022-08-03T19:32:03.011Z,100920.63
2022-08-03T19:35:10.103Z,100923.34
2022-08-03T19:38:27.466Z,100919.88
2022-08-03T19:41:42.019Z,100921.97
2022-08-03T19:44:52.830Z,100907.00
2022-08-03T19:48:09.720Z,100918.50
2022-08-03T19:51:14.608Z,100923.09
2022-08-03T19:54:18.589Z,100920.00
2022-08-03T19:57:34.957Z,100916.16
2022-08-03T20:00:40.844Z,100918.84
2022-08-03T20:03:53.260Z,100909.00
2022-08-03T20:06:59.200Z,100915.56
2022-08-03T20:10:05.908Z,100913.72
2022-08-03T20:13:09.585Z,100918.03
2022-08-03T20:16:12.927Z,100909.66
2022-08-03T20:19:19.210Z,100909.00
2022-08-03T20:22:31.198Z,100905.69
2022-08-03T20:25:55.706Z,100907.97
2022-08-03T20:29:09.249Z,100909.59
2022-08-03T20:32:13.912Z,100909.38
2022-08-03T20:35:17.218Z,100907.94
2022-08-03T20:38:27.271Z,100905.66
2022-08-03T20:41:30.626Z,100905.88
2022-08-03T20:44:34.795Z,100903.97
2022-08-03T20:47:50.979Z,100900.66
2022-08-03T20:50:55.378Z,100903.91
2022-08-03T20:54:03.038Z,100907.41
2022-08-03T20:57:10.168Z,100904.91
2022-08-03T21:00:17.611Z,100902.63
2022-08-03T21:03:20.662Z,100912.88
2022-08-03T21:06:27.743Z,100914.91
2022-08-03T21:09:44.121Z,100909.97
2022-08-03T21:13:13.011Z,100911.09
2022-08-03T21:16:19.932Z,100919.03
2022-08-03T21:19:24.783Z,100907.06
2022-08-03T21:22:32.962Z,100910.09
2022-08-03T21:25:40.301Z,100906.81
2022-08-03T21:28:43.700Z,100912.19
2022-08-03T21:31:47.598Z,100904.97
2022-08-03T21:34:52.576Z,100914.19
2022-08-03T21:38:10.242Z,100917.41
2022-08-03T21:41:14.941Z,100901.75
2022-08-03T21:44:25.282Z,100908.13
2022-08-03T21:47:37.569Z,100910.31
2022-08-03T21:50:43.259Z,100908.00
2022-08-03T21:54:02.458Z,100907.34
2022-08-03T21:57:19.917Z,100911.97
2022-08-03T22:00:24.139Z,100910.09
2022-08-03T22:03:27.529Z,100905.78
2022-08-03T22:06:31.402Z,100906.34
2022-08-03T22:09:35.331Z,100907.13
2022-08-03T22:12:40.060Z,100908.34
2022-08-03T22:15:43.224Z,100908.25
2022-08-03T22:18:47.474Z,100917.72
2022-08-03T22:21:51.412Z,100919.31
2022-08-03T22:24:59.948Z,100911.88
2022-08-03T22:28:07.816Z,100912.63
2022-08-03T22:31:57.674Z,100914.69
2022-08-03T22:34:35.438Z,100911.38
2022-08-03T22:37:40.991Z,100911.31
2022-08-03T22:40:45.379Z,100917.19
2022-08-03T22:43:50.469Z,100913.91
2022-08-03T22:46:53.632Z,100920.41
2022-08-03T22:50:33.491Z,100920.97
2022-08-03T22:53:23.194Z,100920.78
2022-08-03T22:56:26.499Z,100916.91
2022-08-03T22:59:41.127Z,100912.19
2022-08-03T23:02:48.403Z,100917.13
2022-08-03T23:06:01.276Z,100910.50
2022-08-03T23:09:08.805Z,100914.59
2022-08-03T23:12:16.568Z,100907.53
2022-08-03T23:15:21.712Z,100911.38
2022-08-03T23:18:26.567Z,100918.06
2022-08-03T23:21:52.955Z,100914.78
2022-08-03T23:24:54.333Z,100910.50
2022-08-03T23:28:05.307Z,100910.66
2022-08-03T23:31:10.861Z,100912.59
2022-08-03T23:34:33.842Z,100917.25
2022-08-03T23:38:04.333Z,100909.22
2022-08-03T23:41:05.310Z,100909.75
2022-08-03T23:44:11.680Z,100905.84
2022-08-03T23:47:16.450Z,100904.06
2022-08-03T23:50:20.184Z,100912.06
2022-08-03T23:53:31.229Z,100903.63
2022-08-03T23:56:51.763Z,100906.94
